createdAt,value
2018-12-21T00:01:07.788Z,92.43
2018-12-21T00:03:36.238Z,90.06
2018-12-21T00:06:04.761Z,90.88
2018-12-21T00:08:33.070Z,91.49
2018-12-21T00:11:01.368Z,91.72
2018-12-21T00:13:29.710Z,92.01
2018-12-21T00:15:58.039Z,91.98
2018-12-21T00:18:26.383Z,92.04
2018-12-21T00:20:54.707Z,92.07
2018-12-21T00:23:23.041Z,92.63
2018-12-21T00:25:51.440Z,91.72
2018-12-21T00:28:19.847Z,91.68
2018-12-21T00:30:47.541Z,91.97
2018-12-21T00:33:21.366Z,91.02
2018-12-21T00:35:55.074Z,90.71
2018-12-21T00:38:29.017Z,90.83
2018-12-21T00:41:02.743Z,90.67
2018-12-21T00:43:33.088Z,90.44
2018-12-21T00:46:03.522Z,90.61
2018-12-21T00:48:31.967Z,89.86
2018-12-21T00:51:00.500Z,90.79
2018-12-21T00:53:28.813Z,90.10
2018-12-21T00:55:57.144Z,89.41
2018-12-21T00:58:25.496Z,89.30
2018-12-21T01:00:53.829Z,89.08
2018-12-21T01:03:22.154Z,89.50
2018-12-21T01:05:50.487Z,90.24
2018-12-21T01:08:18.811Z,89.36
2018-12-21T01:10:47.213Z,90.18
2018-12-21T01:13:15.615Z,89.66
2018-12-21T01:15:44.042Z,89.45
2018-12-21T01:18:12.385Z,89.22
2018-12-21T01:20:40.742Z,89.68
2018-12-21T01:23:09.081Z,89.22
2018-12-21T01:25:37.443Z,89.47
2018-12-21T01:28:05.762Z,88.71
2018-12-21T01:30:34.087Z,88.94
2018-12-21T01:33:02.410Z,88.81
2018-12-21T01:35:30.915Z,88.50
2018-12-21T01:37:59.236Z,88.12
2018-12-21T01:40:27.610Z,87.39
2018-12-21T01:42:56.070Z,88.49
2018-12-21T01:45:24.423Z,88.79
2018-12-21T01:47:52.920Z,88.45
2018-12-21T01:50:21.317Z,88.62
2018-12-21T01:52:49.752Z,88.27
2018-12-21T01:55:18.074Z,88.76
2018-12-21T01:57:46.383Z,87.93
2018-12-21T02:00:14.836Z,88.23
2018-12-21T02:02:43.135Z,89.56
2018-12-21T02:05:11.467Z,88.35
2018-12-21T02:07:39.809Z,88.30
2018-12-21T02:10:08.470Z,87.91
2018-12-21T02:12:36.794Z,87.65
2018-12-21T02:15:05.421Z,87.72
2018-12-21T02:17:33.728Z,87.49
2018-12-21T02:20:02.151Z,88.13
2018-12-21T02:22:30.550Z,88.41
2018-12-21T02:24:58.911Z,88.27
2018-12-21T02:27:27.215Z,88.42
2018-12-21T02:29:55.541Z,88.77
2018-12-21T02:32:23.934Z,88.16
2018-12-21T02:34:52.251Z,88.35
2018-12-21T02:37:20.569Z,89.02
2018-12-21T02:39:48.905Z,89.19
2018-12-21T02:42:17.249Z,88.49
2018-12-21T02:44:45.637Z,88.48
2018-12-21T02:47:13.978Z,88.82
2018-12-21T02:49:42.310Z,88.28
2018-12-21T02:52:10.912Z,88.34
2018-12-21T02:54:39.253Z,88.32
2018-12-21T02:57:07.614Z,88.51
2018-12-21T02:59:36.048Z,87.83
2018-12-21T03:02:04.394Z,88.08
2018-12-21T03:04:32.719Z,88.73
2018-12-21T03:07:01.094Z,88.31
2018-12-21T03:09:29.488Z,89.76
2018-12-21T03:11:57.826Z,91.90
2018-12-21T03:14:26.214Z,92.20
2018-12-21T03:16:54.559Z,91.98
2018-12-21T03:19:23.014Z,91.39
2018-12-21T03:21:51.334Z,91.64
2018-12-21T03:24:19.667Z,91.34
2018-12-21T03:26:48.018Z,91.07
2018-12-21T03:29:16.358Z,91.49
2018-12-21T03:31:44.801Z,91.24
2018-12-21T03:34:13.117Z,91.30
2018-12-21T03:36:41.571Z,90.71
2018-12-21T03:39:09.988Z,90.63
2018-12-21T03:41:38.331Z,90.64
2018-12-21T03:44:06.667Z,90.14
2018-12-21T03:46:35.143Z,89.82
2018-12-21T03:49:03.602Z,89.93
2018-12-21T03:51:31.928Z,89.82
2018-12-21T03:54:00.392Z,89.69
2018-12-21T03:56:28.716Z,89.90
2018-12-21T03:58:57.184Z,91.53
2018-12-21T04:01:25.612Z,89.95
2018-12-21T04:03:53.960Z,90.21
2018-12-21T04:06:22.327Z,89.40
2018-12-21T04:08:50.817Z,90.08
2018-12-21T04:11:19.191Z,89.30
2018-12-21T04:13:47.493Z,89.36
2018-12-21T04:16:15.827Z,89.54
2018-12-21T04:18:44.169Z,89.20
2018-12-21T04:21:12.495Z,91.20
2018-12-21T04:23:40.936Z,90.25
2018-12-21T04:26:09.280Z,91.00
2018-12-21T04:28:37.794Z,91.10
2018-12-21T04:31:06.133Z,90.73
2018-12-21T04:33:34.549Z,91.64
2018-12-21T04:36:02.988Z,92.92
2018-12-21T04:38:31.299Z,94.58
2018-12-21T04:40:59.630Z,96.09
2018-12-21T04:43:27.946Z,98.43
2018-12-21T04:45:56.292Z,100.00
2018-12-21T04:48:24.633Z,100.00
2018-12-21T04:50:53.017Z,100.00
2018-12-21T04:53:21.357Z,100.00
2018-12-21T04:55:49.699Z,100.00
2018-12-21T04:58:18.052Z,100.00
2018-12-21T05:00:46.390Z,100.00
2018-12-21T05:03:15.297Z,100.00
2018-12-21T05:05:43.652Z,100.00
2018-12-21T05:08:12.003Z,100.00
2018-12-21T05:10:40.397Z,100.00
2018-12-21T05:13:08.844Z,100.00
2018-12-21T05:15:37.262Z,100.00
2018-12-21T05:18:05.595Z,100.00
2018-12-21T05:20:33.940Z,100.00
2018-12-21T05:23:02.273Z,100.00
2018-12-21T05:25:30.651Z,100.00
2018-12-21T05:27:59.019Z,100.00
2018-12-21T05:30:27.399Z,100.00
2018-12-21T05:32:55.739Z,100.00
2018-12-21T05:35:24.078Z,100.00
2018-12-21T05:37:52.431Z,100.00
2018-12-21T05:40:20.883Z,100.00
2018-12-21T05:42:49.197Z,100.00
2018-12-21T05:45:17.529Z,100.00
2018-12-21T05:47:45.838Z,100.00
2018-12-21T05:50:14.544Z,100.00
2018-12-21T05:52:42.991Z,100.00
2018-12-21T05:55:11.388Z,100.00
2018-12-21T05:57:39.724Z,100.00
2018-12-21T06:00:09.178Z,100.00
2018-12-21T06:02:37.499Z,100.00
2018-12-21T06:05:06.465Z,100.00
2018-12-21T06:07:34.771Z,100.00
2018-12-21T06:10:03.686Z,100.00
2018-12-21T06:12:32.044Z,100.00
2018-12-21T06:15:00.399Z,100.00
2018-12-21T06:17:28.817Z,100.00
2018-12-21T06:19:57.206Z,100.00
2018-12-21T06:22:25.849Z,100.00
2018-12-21T06:24:54.217Z,100.00
2018-12-21T06:27:22.599Z,100.00
2018-12-21T06:29:50.928Z,100.00
2018-12-21T06:32:19.293Z,100.00
2018-12-21T06:34:47.616Z,100.00
2018-12-21T06:37:15.923Z,100.00
2018-12-21T06:39:44.490Z,100.00
2018-12-21T06:42:12.960Z,100.00
2018-12-21T06:44:41.293Z,100.00
2018-12-21T06:47:09.687Z,100.00
2018-12-21T06:49:38.047Z,100.00
2018-12-21T06:52:06.407Z,100.00
2018-12-21T06:54:34.750Z,100.00
2018-12-21T06:57:03.091Z,100.00
2018-12-21T06:59:31.464Z,100.00
2018-12-21T07:01:59.778Z,100.00
2018-12-21T07:04:28.122Z,100.00
2018-12-21T07:06:56.516Z,100.00
2018-12-21T07:09:24.917Z,100.00
2018-12-21T07:11:54.217Z,100.00
2018-12-21T07:14:22.753Z,100.00
2018-12-21T07:16:51.254Z,100.00
2018-12-21T07:19:19.681Z,100.00
2018-12-21T07:21:48.033Z,100.00
2018-12-21T07:24:16.587Z,100.00
2018-12-21T07:26:44.974Z,100.00
2018-12-21T07:29:13.316Z,100.00
2018-12-21T07:31:41.814Z,100.00
2018-12-21T07:34:10.172Z,100.00
2018-12-21T07:36:38.614Z,100.00
2018-12-21T07:39:08.886Z,100.00
2018-12-21T07:41:37.243Z,100.00
2018-12-21T07:44:05.808Z,100.00
2018-12-21T07:46:34.138Z,100.00
2018-12-21T07:49:02.582Z,100.00
2018-12-21T07:51:31.942Z,100.00
2018-12-21T07:54:00.297Z,100.00
2018-12-21T07:56:28.699Z,100.00
2018-12-21T07:58:57.523Z,100.00
2018-12-21T08:01:25.963Z,100.00
2018-12-21T08:03:54.456Z,100.00
2018-12-21T08:06:22.836Z,100.00
2018-12-21T08:08:51.184Z,100.00
2018-12-21T08:11:19.510Z,100.00
2018-12-21T08:13:47.872Z,100.00
2018-12-21T08:16:16.233Z,100.00
2018-12-21T08:18:44.659Z,100.00
2018-12-21T08:21:12.984Z,100.00
2018-12-21T08:23:44.322Z,100.00
2018-12-21T08:26:11.630Z,100.00
2018-12-21T08:28:40.007Z,100.00
2018-12-21T08:31:08.364Z,100.00
2018-12-21T08:33:37.694Z,100.00
2018-12-21T08:36:06.063Z,100.00
2018-12-21T08:38:34.405Z,100.00
2018-12-21T08:41:02.778Z,100.00
2018-12-21T08:43:31.271Z,100.00
2018-12-21T08:45:59.728Z,100.00
2018-12-21T08:48:28.099Z,100.00
2018-12-21T08:50:56.434Z,100.00
2018-12-21T08:53:24.727Z,100.00
2018-12-21T08:55:53.099Z,100.00
2018-12-21T08:58:21.422Z,100.00
2018-12-21T09:00:49.767Z,100.00
2018-12-21T09:03:18.187Z,100.00
2018-12-21T09:05:46.620Z,100.00
2018-12-21T09:08:15.019Z,100.00
2018-12-21T09:10:43.372Z,100.00
2018-12-21T09:13:11.723Z,100.00
2018-12-21T09:15:40.183Z,100.00
2018-12-21T09:18:09.077Z,100.00
2018-12-21T09:20:37.602Z,100.00
2018-12-21T09:23:06.034Z,100.00
2018-12-21T09:25:34.408Z,100.00
2018-12-21T09:28:02.818Z,100.00
2018-12-21T09:30:31.263Z,100.00
2018-12-21T09:32:59.618Z,100.00
2018-12-21T09:35:27.977Z,100.00
2018-12-21T09:37:56.301Z,100.00
2018-12-21T09:40:24.960Z,100.00
2018-12-21T09:42:53.536Z,100.00
2018-12-21T09:45:22.012Z,100.00
2018-12-21T09:47:50.404Z,100.00
2018-12-21T09:50:18.836Z,100.00
2018-12-21T09:52:47.201Z,100.00
2018-12-21T09:55:15.621Z,100.00
2018-12-21T09:57:44.125Z,100.00
2018-12-21T10:00:12.566Z,100.00
2018-12-21T10:02:40.994Z,100.00
2018-12-21T10:05:10.784Z,100.00
2018-12-21T10:07:39.408Z,100.00
2018-12-21T10:10:08.851Z,100.00
2018-12-21T10:12:37.290Z,100.00
2018-12-21T10:15:07.566Z,100.00
2018-12-21T10:17:36.056Z,100.00
2018-12-21T10:20:06.979Z,100.00
2018-12-21T10:22:35.627Z,100.00
2018-12-21T10:25:05.481Z,100.00
2018-12-21T10:27:33.822Z,100.00
2018-12-21T10:30:02.156Z,100.00
2018-12-21T10:32:30.527Z,100.00
2018-12-21T10:34:58.909Z,100.00
2018-12-21T10:37:27.264Z,100.00
2018-12-21T10:39:55.635Z,100.00
2018-12-21T10:42:24.124Z,100.00
2018-12-21T10:44:52.580Z,100.00
2018-12-21T10:47:20.929Z,100.00
2018-12-21T10:49:49.393Z,100.00
2018-12-21T10:52:17.764Z,100.00
2018-12-21T10:54:46.091Z,100.00
2018-12-21T10:57:14.511Z,100.00
2018-12-21T10:59:43.540Z,100.00
2018-12-21T11:02:12.224Z,100.00
2018-12-21T11:04:40.606Z,100.00
2018-12-21T11:07:09.721Z,100.00
2018-12-21T11:09:38.111Z,100.00
2018-12-21T11:12:06.465Z,100.00
2018-12-21T11:14:35.741Z,100.00
2018-12-21T11:17:04.137Z,100.00
2018-12-21T11:19:32.680Z,100.00
2018-12-21T11:22:01.192Z,100.00
2018-12-21T11:24:35.339Z,100.00
2018-12-21T11:27:00.012Z,100.00
2018-12-21T11:29:28.426Z,100.00
2018-12-21T11:31:56.811Z,100.00
2018-12-21T11:34:25.205Z,100.00
2018-12-21T11:36:53.578Z,100.00
2018-12-21T11:39:22.035Z,100.00
2018-12-21T11:41:50.400Z,100.00
2018-12-21T11:44:18.739Z,100.00
2018-12-21T11:46:47.101Z,100.00
2018-12-21T11:49:15.525Z,100.00
2018-12-21T11:51:43.861Z,100.00
2018-12-21T11:54:12.186Z,100.00
2018-12-21T11:56:40.516Z,99.90
2018-12-21T11:59:08.854Z,100.00
2018-12-21T12:01:37.424Z,100.00
2018-12-21T12:04:05.893Z,100.00
2018-12-21T12:06:34.258Z,100.00
2018-12-21T12:09:06.269Z,100.00
2018-12-21T12:11:32.996Z,100.00
2018-12-21T12:14:01.451Z,100.00
2018-12-21T12:16:29.796Z,100.00
2018-12-21T12:18:58.193Z,99.40
2018-12-21T12:21:26.537Z,100.00
2018-12-21T12:23:54.879Z,99.67
2018-12-21T12:26:23.312Z,99.55
2018-12-21T12:28:51.647Z,97.83
2018-12-21T12:31:20.077Z,96.38
2018-12-21T12:33:48.543Z,97.04
2018-12-21T12:36:16.994Z,97.61
2018-12-21T12:38:45.328Z,94.71
2018-12-21T12:41:13.683Z,95.78
2018-12-21T12:43:42.018Z,96.10
2018-12-21T12:46:10.363Z,94.91
2018-12-21T12:48:38.704Z,94.33
2018-12-21T12:51:07.090Z,93.75
2018-12-21T12:53:35.470Z,92.98
2018-12-21T12:56:05.220Z,93.66
2018-12-21T12:58:33.784Z,95.58
2018-12-21T13:01:02.305Z,94.76
2018-12-21T13:03:30.728Z,97.17
2018-12-21T13:05:59.149Z,98.56
2018-12-21T13:08:27.724Z,99.06
2018-12-21T13:10:56.073Z,95.40
2018-12-21T13:13:24.500Z,96.60
2018-12-21T13:15:52.834Z,94.79
2018-12-21T13:18:21.223Z,94.53
2018-12-21T13:20:49.550Z,94.44
2018-12-21T13:23:17.909Z,94.85
2018-12-21T13:25:46.246Z,92.44
2018-12-21T13:28:14.601Z,92.97
2018-12-21T13:30:42.946Z,92.07
2018-12-21T13:33:11.316Z,91.49
2018-12-21T13:35:39.705Z,89.58
2018-12-21T13:38:08.059Z,89.26
2018-12-21T13:40:36.423Z,90.33
2018-12-21T13:43:04.831Z,88.85
2018-12-21T13:45:33.191Z,89.00
2018-12-21T13:48:01.577Z,88.54
2018-12-21T13:50:29.994Z,88.93
2018-12-21T13:52:58.317Z,87.35
2018-12-21T13:55:27.970Z,87.29
2018-12-21T13:57:56.299Z,86.28
2018-12-21T14:00:24.678Z,88.08
2018-12-21T14:02:53.059Z,85.93
2018-12-21T14:05:21.457Z,87.79
2018-12-21T14:07:49.829Z,85.51
2018-12-21T14:10:18.260Z,84.15
2018-12-21T14:12:46.611Z,84.41
2018-12-21T14:15:14.958Z,84.80
2018-12-21T14:17:43.310Z,82.98
2018-12-21T14:20:11.617Z,83.42
2018-12-21T14:22:40.080Z,81.91
2018-12-21T14:25:09.100Z,83.37
2018-12-21T14:27:37.602Z,83.27
2018-12-21T14:30:07.835Z,84.32
2018-12-21T14:32:36.284Z,84.01
2018-12-21T14:35:05.785Z,83.39
2018-12-21T14:37:34.204Z,83.14
2018-12-21T14:40:05.906Z,84.56
2018-12-21T14:42:34.263Z,85.19
2018-12-21T14:45:02.639Z,84.79
2018-12-21T14:47:30.940Z,85.42
2018-12-21T14:49:59.325Z,86.16
2018-12-21T14:52:30.754Z,85.52
2018-12-21T14:54:59.220Z,84.98
2018-12-21T14:57:27.734Z,85.21
2018-12-21T14:59:56.066Z,85.36
2018-12-21T15:02:24.398Z,84.46
2018-12-21T15:04:53.103Z,87.02
2018-12-21T15:07:21.558Z,86.55
2018-12-21T15:09:50.810Z,87.52
2018-12-21T15:12:19.804Z,88.39
2018-12-21T15:14:48.994Z,87.27
2018-12-21T15:17:17.442Z,87.59
2018-12-21T15:19:45.779Z,85.22
2018-12-21T15:22:14.138Z,84.86
2018-12-21T15:24:42.993Z,84.42
2018-12-21T15:27:11.442Z,82.92
2018-12-21T15:29:41.072Z,82.29
2018-12-21T15:32:09.596Z,82.18
2018-12-21T15:34:37.937Z,80.04
2018-12-21T15:37:06.441Z,80.29
2018-12-21T15:39:34.770Z,76.94
2018-12-21T15:42:03.818Z,73.95
2018-12-21T15:44:32.186Z,74.48
2018-12-21T15:47:08.788Z,73.88
2018-12-21T15:49:30.894Z,75.08
2018-12-21T15:51:59.332Z,74.33
2018-12-21T15:54:27.765Z,75.90
2018-12-21T15:56:56.091Z,76.16
2018-12-21T15:59:24.459Z,76.16
2018-12-21T16:01:52.794Z,78.73
2018-12-21T16:04:21.152Z,77.46
2018-12-21T16:06:49.543Z,79.29
2018-12-21T16:09:18.062Z,77.47
2018-12-21T16:11:46.463Z,74.50
2018-12-21T16:14:14.935Z,72.50
2018-12-21T16:16:43.344Z,74.03
2018-12-21T16:19:11.698Z,73.89
2018-12-21T16:21:40.140Z,75.36
2018-12-21T16:24:08.506Z,75.44
2018-12-21T16:26:36.959Z,75.27
2018-12-21T16:29:05.325Z,76.32
2018-12-21T16:31:33.644Z,76.39
2018-12-21T16:34:01.993Z,76.99
2018-12-21T16:36:30.396Z,76.51
2018-12-21T16:38:58.732Z,76.95
2018-12-21T16:41:27.087Z,76.33
2018-12-21T16:43:55.416Z,77.03
2018-12-21T16:46:23.799Z,77.28
2018-12-21T16:48:52.552Z,77.30
2018-12-21T16:51:20.918Z,77.25
2018-12-21T16:53:49.286Z,77.87
2018-12-21T16:56:17.812Z,78.94
2018-12-21T16:58:46.231Z,79.55
2018-12-21T17:01:14.592Z,77.56
2018-12-21T17:03:42.980Z,78.82
2018-12-21T17:06:11.315Z,78.67
2018-12-21T17:08:39.655Z,77.56
2018-12-21T17:11:08.093Z,78.33
2018-12-21T17:13:36.443Z,77.67
2018-12-21T17:16:04.856Z,78.58
2018-12-21T17:18:33.271Z,78.33
2018-12-21T17:21:01.623Z,77.86
2018-12-21T17:23:30.047Z,78.01
2018-12-21T17:25:58.411Z,79.39
2018-12-21T17:28:26.763Z,79.69
2018-12-21T17:30:55.086Z,81.11
2018-12-21T17:33:23.491Z,81.89
2018-12-21T17:35:51.845Z,81.85
2018-12-21T17:38:20.176Z,82.14
2018-12-21T17:40:48.530Z,80.69
2018-12-21T17:43:16.857Z,80.78
2018-12-21T17:45:45.228Z,81.20
2018-12-21T17:48:13.600Z,80.27
2018-12-21T17:50:41.983Z,79.90
2018-12-21T17:53:10.451Z,78.48
2018-12-21T17:55:39.177Z,79.90
2018-12-21T17:58:08.517Z,81.33
2018-12-21T18:00:36.851Z,79.12
2018-12-21T18:03:05.740Z,79.99
2018-12-21T18:05:34.055Z,80.94
2018-12-21T18:08:02.734Z,80.89
2018-12-21T18:10:31.215Z,81.07
2018-12-21T18:12:59.612Z,81.07
2018-12-21T18:15:27.974Z,82.22
2018-12-21T18:17:56.339Z,81.75
2018-12-21T18:20:24.874Z,81.59
2018-12-21T18:22:53.654Z,81.58
2018-12-21T18:25:22.020Z,80.36
2018-12-21T18:27:50.369Z,80.14
2018-12-21T18:30:20.620Z,79.85
2018-12-21T18:32:48.976Z,80.36
2018-12-21T18:35:19.460Z,79.33
2018-12-21T18:37:49.149Z,80.33
2018-12-21T18:40:17.521Z,79.71
2018-12-21T18:42:45.935Z,79.08
2018-12-21T18:45:15.266Z,78.21
2018-12-21T18:47:43.676Z,79.72
2018-12-21T18:50:12.264Z,78.40
2018-12-21T18:52:40.603Z,78.92
2018-12-21T18:55:13.618Z,78.99
2018-12-21T18:57:42.062Z,79.84
2018-12-21T19:00:13.752Z,79.65
2018-12-21T19:02:42.322Z,78.88
2018-12-21T19:05:10.673Z,79.46
2018-12-21T19:07:39.057Z,79.57
2018-12-21T19:10:08.253Z,79.53
2018-12-21T19:12:37.234Z,79.13
2018-12-21T19:15:06.619Z,79.20
2018-12-21T19:17:34.960Z,79.34
2018-12-21T19:20:05.987Z,80.67
2018-12-21T19:22:34.603Z,80.60
2018-12-21T19:25:03.058Z,79.97
2018-12-21T19:27:31.408Z,80.52
2018-12-21T19:29:59.755Z,80.75
2018-12-21T19:32:28.340Z,80.88
2018-12-21T19:34:56.860Z,80.22
2018-12-21T19:37:25.283Z,80.83
2018-12-21T19:39:53.941Z,81.31
2018-12-21T19:42:22.284Z,81.69
2018-12-21T19:44:50.641Z,81.49
2018-12-21T19:47:19.008Z,81.71
2018-12-21T19:49:47.338Z,81.70
2018-12-21T19:52:15.724Z,82.42
2018-12-21T19:54:44.221Z,82.20
2018-12-21T19:57:12.675Z,82.68
2018-12-21T19:59:41.271Z,83.20
2018-12-21T20:02:09.702Z,84.85
2018-12-21T20:04:38.090Z,86.50
2018-12-21T20:07:06.541Z,87.52
2018-12-21T20:09:34.886Z,86.82
2018-12-21T20:12:04.180Z,86.65
2018-12-21T20:14:32.503Z,85.83
2018-12-21T20:17:00.901Z,86.42
2018-12-21T20:19:29.386Z,86.89
2018-12-21T20:21:57.738Z,86.83
2018-12-21T20:24:26.134Z,85.47
2018-12-21T20:26:54.723Z,85.21
2018-12-21T20:29:23.189Z,84.80
2018-12-21T20:31:51.564Z,85.02
2018-12-21T20:34:19.928Z,85.44
2018-12-21T20:36:48.315Z,82.71
2018-12-21T20:39:16.998Z,82.85
2018-12-21T20:41:45.390Z,82.54
2018-12-21T20:44:13.841Z,81.48
2018-12-21T20:46:42.171Z,82.17
2018-12-21T20:49:10.512Z,81.29
2018-12-21T20:51:39.114Z,81.25
2018-12-21T20:54:07.452Z,81.00
2018-12-21T20:56:35.830Z,81.17
2018-12-21T20:59:04.494Z,81.95
2018-12-21T21:01:32.955Z,82.77
2018-12-21T21:04:01.344Z,82.12
2018-12-21T21:06:29.836Z,82.40
2018-12-21T21:08:58.417Z,82.36
2018-12-21T21:11:26.844Z,83.04
2018-12-21T21:13:55.308Z,82.70
2018-12-21T21:16:23.872Z,83.15
2018-12-21T21:18:52.247Z,82.96
2018-12-21T21:21:21.491Z,83.47
2018-12-21T21:23:49.950Z,84.32
2018-12-21T21:26:18.336Z,84.13
2018-12-21T21:28:46.731Z,83.50
2018-12-21T21:31:15.348Z,84.33
2018-12-21T21:33:43.830Z,83.50
2018-12-21T21:36:12.208Z,85.25
2018-12-21T21:38:40.661Z,84.07
2018-12-21T21:41:09.248Z,83.61
2018-12-21T21:43:37.641Z,83.92
2018-12-21T21:46:06.000Z,83.78
2018-12-21T21:48:34.735Z,83.96
2018-12-21T21:51:03.076Z,83.35
2018-12-21T21:53:31.424Z,84.08
2018-12-21T21:55:59.874Z,84.01
2018-12-21T21:58:28.257Z,84.18
2018-12-21T22:00:56.624Z,84.36
2018-12-21T22:03:24.975Z,85.25
2018-12-21T22:05:53.329Z,84.73
2018-12-21T22:08:21.693Z,84.92
2018-12-21T22:10:50.052Z,85.48
2018-12-21T22:13:18.396Z,86.76
2018-12-21T22:15:46.803Z,85.57
2018-12-21T22:18:15.200Z,86.02
2018-12-21T22:20:43.572Z,84.79
2018-12-21T22:23:12.065Z,84.53
2018-12-21T22:25:40.515Z,84.97
2018-12-21T22:28:08.864Z,84.65
2018-12-21T22:30:37.254Z,84.46
2018-12-21T22:33:05.646Z,85.72
2018-12-21T22:35:34.485Z,84.59
2018-12-21T22:38:02.908Z,85.12
2018-12-21T22:40:31.251Z,85.09
2018-12-21T22:42:59.701Z,84.40
2018-12-21T22:45:28.083Z,83.95
2018-12-21T22:47:56.440Z,85.11
2018-12-21T22:50:25.113Z,84.71
2018-12-21T22:52:53.575Z,83.74
2018-12-21T22:55:21.940Z,83.85
2018-12-21T22:57:56.487Z,84.54
2018-12-21T23:00:22.601Z,84.04
2018-12-21T23:02:50.952Z,84.21
2018-12-21T23:05:19.326Z,84.69
2018-12-21T23:07:47.777Z,83.71
2018-12-21T23:10:16.127Z,84.92
2018-12-21T23:12:44.489Z,85.38
2018-12-21T23:15:12.866Z,84.03
2018-12-21T23:17:41.245Z,83.55
2018-12-21T23:20:09.656Z,84.05
2018-12-21T23:22:38.206Z,84.56
2018-12-21T23:25:06.862Z,84.48
2018-12-21T23:27:35.290Z,84.66
2018-12-21T23:30:05.099Z,85.96
2018-12-21T23:32:33.457Z,85.38
2018-12-21T23:35:01.911Z,85.64
2018-12-21T23:37:30.268Z,84.79
2018-12-21T23:39:58.606Z,85.08
2018-12-21T23:42:27.038Z,84.79
2018-12-21T23:44:55.404Z,85.61
2018-12-21T23:47:23.808Z,85.55
2018-12-21T23:49:52.213Z,85.38
2018-12-21T23:52:20.619Z,84.91
2018-12-21T23:54:48.944Z,86.03
2018-12-21T23:57:17.279Z,86.21
2018-12-21T23:59:45.617Z,86.15
